sensor_id;sensor_type;location;lat;lon;timestamp;pressure;altitude;pressure_sealevel;temperature
62180;BMP280;48172;53.374;10.722;2022-08-04T00:00:27;101523.81;;;28.82
62180;BMP280;48172;53.374;10.722;2022-08-04T00:03:15;101534.31;;;28.83
62180;BMP280;48172;53.374;10.722;2022-08-04T00:11:02;101529.56;;;28.78
62180;BMP280;48172;53.374;10.722;2022-08-04T00:13:30;101523.31;;;28.78
62180;BMP280;48172;53.374;10.722;2022-08-04T00:15:58;101529.56;;;28.78
62180;BMP280;48172;53.374;10.722;2022-08-04T00:18:33;101531.06;;;28.79
62180;BMP280;48172;53.374;10.722;2022-08-04T00:21:05;101524.06;;;28.78
62180;BMP280;48172;53.374;10.722;2022-08-04T00:23:35;101526.06;;;28.78
62180;BMP280;48172;53.374;10.722;2022-08-04T00:26:24;101531.56;;;28.78
62180;BMP280;48172;53.374;10.722;2022-08-04T00:28:51;101526.06;;;28.78
62180;BMP280;48172;53.374;10.722;2022-08-04T00:31:18;101530.81;;;28.77
62180;BMP280;48172;53.374;10.722;2022-08-04T00:34:05;101535.53;;;28.77
62180;BMP280;48172;53.374;10.722;2022-08-04T00:36:32;101536.06;;;28.75
62180;BMP280;48172;53.374;10.722;2022-08-04T00:38:59;101539.06;;;28.77
62180;BMP280;48172;53.374;10.722;2022-08-04T00:41:57;101529.03;;;28.74
62180;BMP280;48172;53.374;10.722;2022-08-04T00:58:34;101522.53;;;28.72
62180;BMP280;48172;53.374;10.722;2022-08-04T01:01:07;101526.06;;;28.72
62180;BMP280;48172;53.374;10.722;2022-08-04T01:03:49;101517.53;;;28.70
62180;BMP280;48172;53.374;10.722;2022-08-04T01:06:43;101523.03;;;28.70
62180;BMP280;48172;53.374;10.722;2022-08-04T01:14:50;101525.06;;;28.70
62180;BMP280;48172;53.374;10.722;2022-08-04T01:20:06;101514.78;;;28.70
62180;BMP280;48172;53.374;10.722;2022-08-04T01:25:28;101510.28;;;28.67
62180;BMP280;48172;53.374;10.722;2022-08-04T01:28:35;101523.53;;;28.69
62180;BMP280;48172;53.374;10.722;2022-08-04T01:31:25;101523.28;;;28.67
62180;BMP280;48172;53.374;10.722;2022-08-04T01:33:58;101518.28;;;28.65
62180;BMP280;48172;53.374;10.722;2022-08-04T01:36:33;101511.53;;;28.66
62180;BMP280;48172;53.374;10.722;2022-08-04T01:39:01;101515.75;;;28.67
62180;BMP280;48172;53.374;10.722;2022-08-04T01:41:48;101521.03;;;28.65
62180;BMP280;48172;53.374;10.722;2022-08-04T01:44:26;101521.03;;;28.65
62180;BMP280;48172;53.374;10.722;2022-08-04T01:46:53;101528.03;;;28.66
62180;BMP280;48172;53.374;10.722;2022-08-04T01:49:21;101533.00;;;28.68
62180;BMP280;48172;53.374;10.722;2022-08-04T01:51:50;101525.00;;;28.64
62180;BMP280;48172;53.374;10.722;2022-08-04T01:54:17;101528.50;;;28.65
62180;BMP280;48172;53.374;10.722;2022-08-04T01:56:46;101528.03;;;28.66
62180;BMP280;48172;53.374;10.722;2022-08-04T01:59:17;101525.75;;;28.65
62180;BMP280;48172;53.374;10.722;2022-08-04T02:01:44;101521.53;;;28.64
62180;BMP280;48172;53.374;10.722;2022-08-04T02:04:18;101511.25;;;28.64
62180;BMP280;48172;53.374;10.722;2022-08-04T02:07:16;101509.25;;;28.65
62180;BMP280;48172;53.374;10.722;2022-08-04T02:09:46;101504.53;;;28.65
62180;BMP280;48172;53.374;10.722;2022-08-04T02:15:08;101506.28;;;28.63
62180;BMP280;48172;53.374;10.722;2022-08-04T02:20:34;101503.00;;;28.64
62180;BMP280;48172;53.374;10.722;2022-08-04T02:23:09;101502.28;;;28.64
62180;BMP280;48172;53.374;10.722;2022-08-04T02:25:46;101500.75;;;28.63
62180;BMP280;48172;53.374;10.722;2022-08-04T02:28:52;101493.00;;;28.61
62180;BMP280;48172;53.374;10.722;2022-08-04T02:33:42;101497.25;;;28.62
62180;BMP280;48172;53.374;10.722;2022-08-04T02:36:13;101494.50;;;28.62
62180;BMP280;48172;53.374;10.722;2022-08-04T02:38:52;101502.50;;;28.60
62180;BMP280;48172;53.374;10.722;2022-08-04T02:41:21;101495.50;;;28.59
62180;BMP280;48172;53.374;10.722;2022-08-04T02:43:49;101492.75;;;28.59
62180;BMP280;48172;53.374;10.722;2022-08-04T02:46:20;101493.25;;;28.58
62180;BMP280;48172;53.374;10.722;2022-08-04T02:48:48;101491.75;;;28.57
62180;BMP280;48172;53.374;10.722;2022-08-04T02:51:16;101492.50;;;28.57
62180;BMP280;48172;53.374;10.722;2022-08-04T02:53:46;101492.50;;;28.57
62180;BMP280;48172;53.374;10.722;2022-08-04T02:56:14;101488.50;;;28.58
62180;BMP280;48172;53.374;10.722;2022-08-04T02:58:45;101488.00;;;28.60
62180;BMP280;48172;53.374;10.722;2022-08-04T03:01:14;101485.00;;;28.58
62180;BMP280;48172;53.374;10.722;2022-08-04T03:09:36;101483.25;;;28.55
62180;BMP280;48172;53.374;10.722;2022-08-04T03:46:47;101487.72;;;28.52
62180;BMP280;48172;53.374;10.722;2022-08-04T03:49:42;101489.75;;;28.52
62180;BMP280;48172;53.374;10.722;2022-08-04T03:55:12;101487.47;;;28.50
62180;BMP280;48172;53.374;10.722;2022-08-04T04:00:20;101490.22;;;28.50
62180;BMP280;48172;53.374;10.722;2022-08-04T04:06:27;101483.22;;;28.49
62180;BMP280;48172;53.374;10.722;2022-08-04T04:12:24;101483.22;;;28.49
62180;BMP280;48172;53.374;10.722;2022-08-04T04:15:11;101484.72;;;28.50
62180;BMP280;48172;53.374;10.722;2022-08-04T04:51:42;101498.94;;;28.43
62180;BMP280;48172;53.374;10.722;2022-08-04T04:54:25;101503.44;;;28.46
62180;BMP280;48172;53.374;10.722;2022-08-04T04:59:33;101495.19;;;28.46
62180;BMP280;48172;53.374;10.722;2022-08-04T05:05:25;101496.72;;;28.47
62180;BMP280;48172;53.374;10.722;2022-08-04T05:08:24;101485.72;;;28.47
62180;BMP280;48172;53.374;10.722;2022-08-04T05:11:29;101488.00;;;28.48
62180;BMP280;48172;53.374;10.722;2022-08-04T05:14:06;101489.22;;;28.47
62180;BMP280;48172;53.374;10.722;2022-08-04T05:20:21;101485.97;;;28.49
62180;BMP280;48172;53.374;10.722;2022-08-04T05:23:08;101499.47;;;28.47
62180;BMP280;48172;53.374;10.722;2022-08-04T05:25:39;101492.44;;;28.46
62180;BMP280;48172;53.374;10.722;2022-08-04T05:28:35;101491.22;;;28.47
62180;BMP280;48172;53.374;10.722;2022-08-04T05:31:10;101482.97;;;28.47
62180;BMP280;48172;53.374;10.722;2022-08-04T05:33:39;101495.47;;;28.48
62180;BMP280;48172;53.374;10.722;2022-08-04T05:36:15;101496.97;;;28.49
62180;BMP280;48172;53.374;10.722;2022-08-04T05:39:05;101495.47;;;28.48
62180;BMP280;48172;53.374;10.722;2022-08-04T05:41:32;101487.47;;;28.50
62180;BMP280;48172;53.374;10.722;2022-08-04T05:44:16;101485.25;;;28.48
62180;BMP280;48172;53.374;10.722;2022-08-04T05:46:47;101485.47;;;28.51
62180;BMP280;48172;53.374;10.722;2022-08-04T05:49:21;101491.47;;;28.49
62180;BMP280;48172;53.374;10.722;2022-08-04T05:51:48;101483.22;;;28.49
62180;BMP280;48172;53.374;10.722;2022-08-04T05:54:16;101478.75;;;28.52
62180;BMP280;48172;53.374;10.722;2022-08-04T05:56:44;101480.22;;;28.53
62180;BMP280;48172;53.374;10.722;2022-08-04T05:59:11;101476.47;;;28.50
62180;BMP280;48172;53.374;10.722;2022-08-04T06:01:39;101484.25;;;28.52
62180;BMP280;48172;53.374;10.722;2022-08-04T06:04:25;101476.00;;;28.52
62180;BMP280;48172;53.374;10.722;2022-08-04T06:06:53;101479.75;;;28.54
62180;BMP280;48172;53.374;10.722;2022-08-04T06:09:20;101473.97;;;28.52
62180;BMP280;48172;53.374;10.722;2022-08-04T06:11:48;101472.75;;;28.53
62180;BMP280;48172;53.374;10.722;2022-08-04T06:14:31;101468.75;;;28.48
62180;BMP280;48172;53.374;10.722;2022-08-04T06:17:00;101468.22;;;28.50
62180;BMP280;48172;53.374;10.722;2022-08-04T06:19:29;101470.00;;;28.53
62180;BMP280;48172;53.374;10.722;2022-08-04T06:22:17;101460.50;;;28.60
62180;BMP280;48172;53.374;10.722;2022-08-04T06:24:45;101465.03;;;28.63
62180;BMP280;48172;53.374;10.722;2022-08-04T06:27:14;101468.53;;;28.69
62180;BMP280;48172;53.374;10.722;2022-08-04T06:29:42;101465.03;;;28.74
62180;BMP280;48172;53.374;10.722;2022-08-04T06:32:17;101468.56;;;28.80
62180;BMP280;48172;53.374;10.722;2022-08-04T06:35:04;101466.78;;;28.88
62180;BMP280;48172;53.374;10.722;2022-08-04T06:37:33;101465.56;;;28.95
62180;BMP280;48172;53.374;10.722;2022-08-04T06:40:10;101457.31;;;29.00
62180;BMP280;48172;53.374;10.722;2022-08-04T06:42:59;101462.34;;;29.07
62180;BMP280;48172;53.374;10.722;2022-08-04T06:45:26;101455.06;;;29.10
62180;BMP280;48172;53.374;10.722;2022-08-04T06:47:53;101450.84;;;29.14
62180;BMP280;48172;53.374;10.722;2022-08-04T06:50:20;101440.56;;;29.09
62180;BMP280;48172;53.374;10.722;2022-08-04T06:53:07;101444.31;;;29.06
62180;BMP280;48172;53.374;10.722;2022-08-04T06:55:34;101447.34;;;29.03
62180;BMP280;48172;53.374;10.722;2022-08-04T06:58:02;101452.06;;;29.02
62180;BMP280;48172;53.374;10.722;2022-08-04T07:00:30;101446.84;;;28.99
62180;BMP280;48172;53.374;10.722;2022-08-04T07:02:58;101443.34;;;28.98
62180;BMP280;48172;53.374;10.722;2022-08-04T07:05:25;101442.56;;;28.98
62180;BMP280;48172;53.374;10.722;2022-08-04T07:07:52;101447.31;;;28.97
62180;BMP280;48172;53.374;10.722;2022-08-04T07:10:25;101449.81;;;28.95
62180;BMP280;48172;53.374;10.722;2022-08-04T07:12:57;101439.06;;;28.92
62180;BMP280;48172;53.374;10.722;2022-08-04T07:15:24;101442.09;;;28.94
62180;BMP280;48172;53.374;10.722;2022-08-04T07:17:52;101442.81;;;28.94
62180;BMP280;48172;53.374;10.722;2022-08-04T07:20:20;101442.31;;;28.90
62180;BMP280;48172;53.374;10.722;2022-08-04T07:23:04;101442.81;;;28.94
62180;BMP280;48172;53.374;10.722;2022-08-04T07:25:35;101444.31;;;28.95
62180;BMP280;48172;53.374;10.722;2022-08-04T07:28:24;101436.06;;;28.95
62180;BMP280;48172;53.374;10.722;2022-08-04T07:30:52;101443.81;;;28.97
62180;BMP280;48172;53.374;10.722;2022-08-04T07:33:20;101445.31;;;28.98
62180;BMP280;48172;53.374;10.722;2022-08-04T07:35:52;101435.84;;;28.99
62180;BMP280;48172;53.374;10.722;2022-08-04T07:38:40;101443.06;;;29.02
62180;BMP280;48172;53.374;10.722;2022-08-04T07:41:21;101429.81;;;29.00
62180;BMP280;48172;53.374;10.722;2022-08-04T07:44:05;101429.56;;;29.04
62180;BMP280;48172;53.374;10.722;2022-08-04T07:46:33;101432.59;;;29.06
62180;BMP280;48172;53.374;10.722;2022-08-04T07:49:00;101435.06;;;29.09
62180;BMP280;48172;53.374;10.722;2022-08-04T07:51:27;101434.31;;;29.09
62180;BMP280;48172;53.374;10.722;2022-08-04T07:53:57;101429.81;;;29.11
62180;BMP280;48172;53.374;10.722;2022-08-04T07:56:25;101423.81;;;29.13
62180;BMP280;48172;53.374;10.722;2022-08-04T07:58:52;101430.81;;;29.14
62180;BMP280;48172;53.374;10.722;2022-08-04T08:01:19;101425.56;;;29.16
62180;BMP280;48172;53.374;10.722;2022-08-04T08:03:46;101430.59;;;29.17
62180;BMP280;48172;53.374;10.722;2022-08-04T08:06:13;101423.81;;;29.18
62180;BMP280;48172;53.374;10.722;2022-08-04T08:08:58;101419.28;;;29.21
62180;BMP280;48172;53.374;10.722;2022-08-04T08:11:37;101418.81;;;29.22
62180;BMP280;48172;53.374;10.722;2022-08-04T08:14:24;101421.31;;;29.26
62180;BMP280;48172;53.374;10.722;2022-08-04T08:16:51;101410.53;;;29.28
62180;BMP280;48172;53.374;10.722;2022-08-04T08:19:18;101418.28;;;29.30
62180;BMP280;48172;53.374;10.722;2022-08-04T08:21:46;101417.06;;;29.31
62180;BMP280;48172;53.374;10.722;2022-08-04T08:24:26;101415.28;;;29.33
62180;BMP280;48172;53.374;10.722;2022-08-04T08:26:53;101414.03;;;29.34
62180;BMP280;48172;53.374;10.722;2022-08-04T08:29:21;101415.03;;;29.37
62180;BMP280;48172;53.374;10.722;2022-08-04T08:31:48;101402.78;;;29.38
62180;BMP280;48172;53.374;10.722;2022-08-04T08:34:26;101402.75;;;29.43
62180;BMP280;48172;53.374;10.722;2022-08-04T08:37:12;101402.75;;;29.43
62180;BMP280;48172;53.374;10.722;2022-08-04T08:39:48;101392.97;;;29.48
62180;BMP280;48172;53.374;10.722;2022-08-04T08:53:29;101396.47;;;29.59
62180;BMP280;48172;53.374;10.722;2022-08-04T09:01:20;101388.16;;;29.65
62180;BMP280;48172;53.374;10.722;2022-08-04T09:09:42;101379.63;;;29.74
62180;BMP280;48172;53.374;10.722;2022-08-04T09:15:12;101380.13;;;29.78
62180;BMP280;48172;53.374;10.722;2022-08-04T09:17:53;101377.59;;;29.80
62180;BMP280;48172;53.374;10.722;2022-08-04T09:23:05;101372.06;;;29.86
62180;BMP280;48172;53.374;10.722;2022-08-04T09:25:48;101373.81;;;29.89
62180;BMP280;48172;53.374;10.722;2022-08-04T09:28:23;101373.31;;;29.90
62180;BMP280;48172;53.374;10.722;2022-08-04T09:31:12;101366.03;;;29.93
62180;BMP280;48172;53.374;10.722;2022-08-04T09:34:01;101371.78;;;29.95
62180;BMP280;48172;53.374;10.722;2022-08-04T09:36:45;101363.75;;;29.97
62180;BMP280;48172;53.374;10.722;2022-08-04T09:39:29;101363.25;;;29.98
62180;BMP280;48172;53.374;10.722;2022-08-04T09:47:40;101361.19;;;30.05
62180;BMP280;48172;53.374;10.722;2022-08-04T09:50:45;101358.91;;;30.09
62180;BMP280;48172;53.374;10.722;2022-08-04T09:56:33;101349.88;;;30.14
62180;BMP280;48172;53.374;10.722;2022-08-04T09:59:21;101341.09;;;30.15
62180;BMP280;48172;53.374;10.722;2022-08-04T10:01:53;101346.84;;;30.17
62180;BMP280;48172;53.374;10.722;2022-08-04T10:04:29;101344.31;;;30.19
62180;BMP280;48172;53.374;10.722;2022-08-04T10:10:23;101340.81;;;30.24
62180;BMP280;48172;53.374;10.722;2022-08-04T10:23:30;101318.88;;;30.37
62180;BMP280;48172;53.374;10.722;2022-08-04T10:26:30;101322.13;;;30.41
62180;BMP280;48172;53.374;10.722;2022-08-04T10:29:06;101315.59;;;30.45
62180;BMP280;48172;53.374;10.722;2022-08-04T10:31:53;101315.28;;;30.48
62180;BMP280;48172;53.374;10.722;2022-08-04T10:34:25;101300.47;;;30.51
62180;BMP280;48172;53.374;10.722;2022-08-04T10:37:01;101303.50;;;30.53
62180;BMP280;48172;53.374;10.722;2022-08-04T10:39:44;101300.94;;;30.55
62180;BMP280;48172;53.374;10.722;2022-08-04T10:42:35;101297.16;;;30.58
62180;BMP280;48172;53.374;10.722;2022-08-04T10:45:18;101291.38;;;30.62
62180;BMP280;48172;53.374;10.722;2022-08-04T10:47:54;101295.09;;;30.64
62180;BMP280;48172;53.374;10.722;2022-08-04T10:50:27;101284.88;;;30.59
62180;BMP280;48172;53.374;10.722;2022-08-04T10:53:02;101285.66;;;30.54
62180;BMP280;48172;53.374;10.722;2022-08-04T10:55:40;101280.63;;;30.58
62180;BMP280;48172;53.374;10.722;2022-08-04T10:58:51;101278.50;;;30.70
62180;BMP280;48172;53.374;10.722;2022-08-04T11:01:26;101279.13;;;30.82
62180;BMP280;48172;53.374;10.722;2022-08-04T11:04:22;101268.25;;;30.89
62180;BMP280;48172;53.374;10.722;2022-08-04T11:06:53;101263.44;;;30.95
62180;BMP280;48172;53.374;10.722;2022-08-04T11:09:21;101265.91;;;30.99
62180;BMP280;48172;53.374;10.722;2022-08-04T11:12:02;101266.88;;;31.01
62180;BMP280;48172;53.374;10.722;2022-08-04T11:14:37;101263.59;;;31.03
62180;BMP280;48172;53.374;10.722;2022-08-04T11:17:07;101264.56;;;31.05
62180;BMP280;48172;53.374;10.722;2022-08-04T11:19:46;101267.03;;;31.09
62180;BMP280;48172;53.374;10.722;2022-08-04T11:22:23;101260.72;;;31.14
62180;BMP280;48172;53.374;10.722;2022-08-04T11:25:11;101264.66;;;31.18
62180;BMP280;48172;53.374;10.722;2022-08-04T11:27:53;101259.38;;;31.20
62180;BMP280;48172;53.374;10.722;2022-08-04T11:30:24;101256.09;;;31.22
62180;BMP280;48172;53.374;10.722;2022-08-04T11:33:20;101246.22;;;31.27
62180;BMP280;48172;53.374;10.722;2022-08-04T11:35:58;101255.19;;;31.33
62180;BMP280;48172;53.374;10.722;2022-08-04T11:38:38;101253.84;;;31.39
62180;BMP280;48172;53.374;10.722;2022-08-04T11:41:13;101256.28;;;31.43
62180;BMP280;48172;53.374;10.722;2022-08-04T11:43:53;101253.44;;;31.48
62180;BMP280;48172;53.374;10.722;2022-08-04T11:46:39;101253.16;;;31.52
62180;BMP280;48172;53.374;10.722;2022-08-04T11:49:14;101250.88;;;31.56
62180;BMP280;48172;53.374;10.722;2022-08-04T11:51:42;101241.38;;;31.14
62180;BMP280;48172;53.374;10.722;2022-08-04T11:54:10;101240.03;;;30.29
62180;BMP280;48172;53.374;10.722;2022-08-04T11:56:37;101241.56;;;29.89
62180;BMP280;48172;53.374;10.722;2022-08-04T11:59:05;101246.69;;;30.09
62180;BMP280;48172;53.374;10.722;2022-08-04T12:02:01;101244.72;;;30.34
62180;BMP280;48172;53.374;10.722;2022-08-04T12:18:29;101236.53;;;30.77
62180;BMP280;48172;53.374;10.722;2022-08-04T12:21:00;101231.81;;;30.96
62180;BMP280;48172;53.374;10.722;2022-08-04T12:23:32;101234.81;;;31.17
62180;BMP280;48172;53.374;10.722;2022-08-04T12:26:28;101226.03;;;31.37
62180;BMP280;48172;53.374;10.722;2022-08-04T12:28:59;101227.28;;;31.55
62180;BMP280;48172;53.374;10.722;2022-08-04T12:31:44;101234.34;;;31.69
62180;BMP280;48172;53.374;10.722;2022-08-04T12:34:33;101239.91;;;31.82
62180;BMP280;48172;53.374;10.722;2022-08-04T12:37:08;101221.34;;;31.96
62180;BMP280;48172;53.374;10.722;2022-08-04T12:39:39;101229.00;;;32.03
62180;BMP280;48172;53.374;10.722;2022-08-04T12:42:37;101223.63;;;32.11
62180;BMP280;48172;53.374;10.722;2022-08-04T12:45:22;101214.69;;;32.18
62180;BMP280;48172;53.374;10.722;2022-08-04T12:47:52;101213.09;;;32.22
62180;BMP280;48172;53.374;10.722;2022-08-04T12:50:19;101207.84;;;32.06
62180;BMP280;48172;53.374;10.722;2022-08-04T12:52:49;101203.22;;;31.82
62180;BMP280;48172;53.374;10.722;2022-08-04T12:55:33;101196.06;;;31.60
62180;BMP280;48172;53.374;10.722;2022-08-04T12:58:02;101194.56;;;31.40
62180;BMP280;48172;53.374;10.722;2022-08-04T13:00:34;101189.75;;;31.28
62180;BMP280;48172;53.374;10.722;2022-08-04T13:03:13;101194.38;;;31.19
62180;BMP280;48172;53.374;10.722;2022-08-04T13:05:41;101191.16;;;31.15
62180;BMP280;48172;53.374;10.722;2022-08-04T13:08:12;101178.94;;;31.11
62180;BMP280;48172;53.374;10.722;2022-08-04T13:10:43;101179.97;;;31.08
62180;BMP280;48172;53.374;10.722;2022-08-04T13:13:16;101172.31;;;31.01
62180;BMP280;48172;53.374;10.722;2022-08-04T13:15:52;101174.09;;;30.98
62180;BMP280;48172;53.374;10.722;2022-08-04T13:18:23;101168.53;;;31.04
62180;BMP280;48172;53.374;10.722;2022-08-04T13:20:56;101160.28;;;30.98
62180;BMP280;48172;53.374;10.722;2022-08-04T13:23:47;101165.13;;;30.92
62180;BMP280;48172;53.374;10.722;2022-08-04T13:26:34;101162.31;;;30.98
62180;BMP280;48172;53.374;10.722;2022-08-04T13:29:19;101162.00;;;31.01
62180;BMP280;48172;53.374;10.722;2022-08-04T13:32:08;101169.25;;;31.04
62180;BMP280;48172;53.374;10.722;2022-08-04T13:34:39;101159.34;;;30.96
62180;BMP280;48172;53.374;10.722;2022-08-04T13:37:14;101157.88;;;30.89
62180;BMP280;48172;53.374;10.722;2022-08-04T13:39:47;101150.38;;;30.90
62180;BMP280;48172;53.374;10.722;2022-08-04T13:42:23;101144.09;;;30.89
62180;BMP280;48172;53.374;10.722;2022-08-04T13:44:53;101152.16;;;30.87
62180;BMP280;48172;53.374;10.722;2022-08-04T13:47:30;101143.16;;;30.87
62180;BMP280;48172;53.374;10.722;2022-08-04T13:50:15;101135.81;;;30.89
62180;BMP280;48172;53.374;10.722;2022-08-04T13:52:43;101135.31;;;30.91
62180;BMP280;48172;53.374;10.722;2022-08-04T13:55:25;101126.31;;;30.85
62180;BMP280;48172;53.374;10.722;2022-08-04T13:57:56;101118.81;;;30.85
62180;BMP280;48172;53.374;10.722;2022-08-04T14:00:25;101130.47;;;30.78
62180;BMP280;48172;53.374;10.722;2022-08-04T14:03:03;101122.69;;;30.58
62180;BMP280;48172;53.374;10.722;2022-08-04T14:11:19;101113.41;;;30.36
62180;BMP280;48172;53.374;10.722;2022-08-04T14:14:13;101110.16;;;30.32
62180;BMP280;48172;53.374;10.722;2022-08-04T14:17:11;101109.22;;;30.30
62180;BMP280;48172;53.374;10.722;2022-08-04T14:25:03;101095.63;;;30.32
62180;BMP280;48172;53.374;10.722;2022-08-04T14:30:22;101091.84;;;30.35
62180;BMP280;48172;53.374;10.722;2022-08-04T14:32:58;101089.66;;;30.33
62180;BMP280;48172;53.374;10.722;2022-08-04T14:35:55;101092.06;;;30.37
62180;BMP280;48172;53.374;10.722;2022-08-04T14:38:22;101084.13;;;30.33
62180;BMP280;48172;53.374;10.722;2022-08-04T14:40:48;101080.38;;;30.31
62180;BMP280;48172;53.374;10.722;2022-08-04T14:43:16;101082.59;;;30.32
62180;BMP280;48172;53.374;10.722;2022-08-04T14:45:43;101081.84;;;30.32
62180;BMP280;48172;53.374;10.722;2022-08-04T14:48:20;101082.84;;;30.34
62180;BMP280;48172;53.374;10.722;2022-08-04T14:50:48;101087.09;;;30.35
62180;BMP280;48172;53.374;10.722;2022-08-04T14:53:18;101082.41;;;30.30
62180;BMP280;48172;53.374;10.722;2022-08-04T14:55:47;101091.41;;;30.31
62180;BMP280;48172;53.374;10.722;2022-08-04T14:58:31;101082.13;;;30.28
62180;BMP280;48172;53.374;10.722;2022-08-04T15:01:07;101078.97;;;30.24
62180;BMP280;48172;53.374;10.722;2022-08-04T15:03:41;101082.22;;;30.23
62180;BMP280;48172;53.374;10.722;2022-08-04T15:06:20;101084.69;;;30.26
62180;BMP280;48172;53.374;10.722;2022-08-04T15:08:50;101078.00;;;30.40
62180;BMP280;48172;53.374;10.722;2022-08-04T15:11:17;101088.22;;;30.46
62180;BMP280;48172;53.374;10.722;2022-08-04T15:13:50;101076.09;;;30.54
62180;BMP280;48172;53.374;10.722;2022-08-04T15:16:17;101079.97;;;30.64
62180;BMP280;48172;53.374;10.722;2022-08-04T15:18:44;101079.69;;;30.87
62180;BMP280;48172;53.374;10.722;2022-08-04T15:21:15;101079.44;;;31.03
62180;BMP280;48172;53.374;10.722;2022-08-04T15:23:42;101080.47;;;31.19
62180;BMP280;48172;53.374;10.722;2022-08-04T15:26:12;101076.03;;;31.29
62180;BMP280;48172;53.374;10.722;2022-08-04T15:28:46;101068.09;;;31.39
62180;BMP280;48172;53.374;10.722;2022-08-04T15:31:15;101076.53;;;31.46
62180;BMP280;48172;53.374;10.722;2022-08-04T15:34:03;101089.69;;;31.53
62180;BMP280;48172;53.374;10.722;2022-08-04T15:39:50;101098.31;;;31.63
62180;BMP280;48172;53.374;10.722;2022-08-04T15:45:24;101104.72;;;31.71
62180;BMP280;48172;53.374;10.722;2022-08-04T15:48:21;101138.84;;;31.74
62180;BMP280;48172;53.374;10.722;2022-08-04T15:53:20;101114.91;;;31.76
62180;BMP280;48172;53.374;10.722;2022-08-04T15:55:48;101112.16;;;31.76
62180;BMP280;48172;53.374;10.722;2022-08-04T15:58:19;101101.31;;;31.78
62180;BMP280;48172;53.374;10.722;2022-08-04T16:22:02;101314.84;;;31.60
62180;BMP280;48172;53.374;10.722;2022-08-04T16:24:36;101308.88;;;31.56
62180;BMP280;48172;53.374;10.722;2022-08-04T16:27:10;101295.34;;;31.52
62180;BMP280;48172;53.374;10.722;2022-08-04T16:29:41;101259.97;;;31.51
62180;BMP280;48172;53.374;10.722;2022-08-04T16:32:09;101253.25;;;31.46
62180;BMP280;48172;53.374;10.722;2022-08-04T16:35:02;101292.19;;;31.43
62180;BMP280;48172;53.374;10.722;2022-08-04T16:37:30;101316.06;;;31.40
62180;BMP280;48172;53.374;10.722;2022-08-04T16:45:44;101272.28;;;31.31
62180;BMP280;48172;53.374;10.722;2022-08-04T16:48:12;101276.28;;;31.30
62180;BMP280;48172;53.374;10.722;2022-08-04T16:50:47;101257.50;;;31.29
62180;BMP280;48172;53.374;10.722;2022-08-04T16:53:14;101254.50;;;31.27
62180;BMP280;48172;53.374;10.722;2022-08-04T16:56:03;101258.31;;;31.24
62180;BMP280;48172;53.374;10.722;2022-08-04T16:58:34;101264.38;;;31.22
62180;BMP280;48172;53.374;10.722;2022-08-04T17:01:10;101274.44;;;31.19
62180;BMP280;48172;53.374;10.722;2022-08-04T17:03:51;101269.44;;;31.18
62180;BMP280;48172;53.374;10.722;2022-08-04T17:06:32;101261.88;;;31.18
62180;BMP280;48172;53.374;10.722;2022-08-04T17:09:03;101265.69;;;31.15
62180;BMP280;48172;53.374;10.722;2022-08-04T17:11:31;101273.97;;;31.15
62180;BMP280;48172;53.374;10.722;2022-08-04T17:13:58;101284.28;;;31.15
62180;BMP280;48172;53.374;10.722;2022-08-04T17:16:32;101304.88;;;31.14
62180;BMP280;48172;53.374;10.722;2022-08-04T17:18:59;101299.84;;;31.12
62180;BMP280;48172;53.374;10.722;2022-08-04T17:21:28;101308.09;;;31.12
62180;BMP280;48172;53.374;10.722;2022-08-04T17:23:57;101318.19;;;31.10
62180;BMP280;48172;53.374;10.722;2022-08-04T17:26:44;101329.78;;;31.08
62180;BMP280;48172;53.374;10.722;2022-08-04T17:29:19;101329.53;;;31.06
62180;BMP280;48172;53.374;10.722;2022-08-04T17:31:46;101332.31;;;31.06
62180;BMP280;48172;53.374;10.722;2022-08-04T17:34:14;101340.84;;;31.03
62180;BMP280;48172;53.374;10.722;2022-08-04T17:36:45;101343.91;;;30.99
62180;BMP280;48172;53.374;10.722;2022-08-04T17:39:18;101335.63;;;30.99
62180;BMP280;48172;53.374;10.722;2022-08-04T17:41:47;101325.41;;;30.94
62180;BMP280;48172;53.374;10.722;2022-08-04T17:44:15;101321.38;;;30.95
62180;BMP280;48172;53.374;10.722;2022-08-04T17:46:44;101330.94;;;30.94
62180;BMP280;48172;53.374;10.722;2022-08-04T17:54:37;101312.63;;;30.91
62180;BMP280;48172;53.374;10.722;2022-08-04T17:59:46;101303.91;;;30.87
62180;BMP280;48172;53.374;10.722;2022-08-04T18:02:24;101309.19;;;30.85
62180;BMP280;48172;53.374;10.722;2022-08-04T18:05:26;101315.47;;;30.86
62180;BMP280;48172;53.374;10.722;2022-08-04T18:08:12;101300.13;;;30.85
62180;BMP280;48172;53.374;10.722;2022-08-04T18:11:00;101304.94;;;30.84
62180;BMP280;48172;53.374;10.722;2022-08-04T18:13:27;101293.97;;;30.78
62180;BMP280;48172;53.374;10.722;2022-08-04T18:16:02;101298.19;;;30.79
62180;BMP280;48172;53.374;10.722;2022-08-04T18:18:28;101297.22;;;30.77
62180;BMP280;48172;53.374;10.722;2022-08-04T18:20:55;101302.00;;;30.76
62180;BMP280;48172;53.374;10.722;2022-08-04T18:23:25;101288.94;;;30.77
62180;BMP280;48172;53.374;10.722;2022-08-04T18:25:58;101285.44;;;30.76
62180;BMP280;48172;53.374;10.722;2022-08-04T18:28:29;101292.25;;;30.75
62180;BMP280;48172;53.374;10.722;2022-08-04T18:31:15;101287.97;;;30.74
62180;BMP280;48172;53.374;10.722;2022-08-04T18:33:42;101292.53;;;30.72
62180;BMP280;48172;53.374;10.722;2022-08-04T18:36:22;101290.28;;;30.70
62180;BMP280;48172;53.374;10.722;2022-08-04T18:39:05;101295.03;;;30.70
62180;BMP280;48172;53.374;10.722;2022-08-04T18:41:40;101290.28;;;30.70
62180;BMP280;48172;53.374;10.722;2022-08-04T18:44:27;101310.09;;;30.69
62180;BMP280;48172;53.374;10.722;2022-08-04T18:46:55;101312.63;;;30.67